Nearby METAR Reports

 

ENRY - Rygge (nor-Afb), Norway
Distance from station: 0 24km
Updated: 19/09/2020 10:50
Clear
Clear
 Wind from NNE
Wind: NNE 11 km/h
Temperature: 15°C
Dew Point: 8°C
Humidity: 63%
Barometer: 1025 hPa
Summary: Clear
Visibility: greater than 10 km
2020/09/19 08:50 ENRY 190850Z 02006KT 340V060 CAVOK 15/08 Q1025
ENTO - Torp (civ/Nor-Af, Norway
Distance from station: W 29km
Updated: 19/09/2020 11:20
Clear
Clear
 Wind from NNE
Wind: NNE 17 km/h
Temperature: 15°C
Dew Point: 8°C
Humidity: 63%
Barometer: 1025 hPa
Summary: Clear
Visibility: greater than 10 km
2020/09/19 09:20 ENTO 190920Z 03009KT CAVOK 15/08 Q1025 NOSIG
 
ENSN - Skien/Geiterygge, Norway
Distance from station: W 68km
Updated: 09/11/2015 09:50
NOT Current
Clear
Clear
 Wind from SSW
Wind: SSW 19 km/h, Gust: 41 km/h
Temperature: 7°C
Wind Chill: 4°C
Dew Point: 3°C
Humidity: 76%
Barometer: 1000 hPa
Summary: Clear
Visibility: greater than 10 km
2015/11/09 08:50 ENSN 090850Z 20010G22KT 150V240 CAVOK 07/03 Q1000